EST,Max TemperatureF,Mean TemperatureF,Min TemperatureF,Max Dew PointF,MeanDew PointF,Min DewpointF,Max Humidity, Mean Humidity, Min Humidity, Max Sea Level PressureIn, Mean Sea Level PressureIn, Min Sea Level PressureIn, Max VisibilityMiles, Mean VisibilityMiles, Min VisibilityMiles, Max Wind SpeedMPH, Mean Wind SpeedMPH, Max Gust SpeedMPH,PrecipitationIn, CloudCover, Events, WindDirDegrees
2013-11-1,59,53,46,57,44,38,93,80,66,29.70,29.51,29.21,10,10,6,35,15,44,T,7,Rain,242
2013-11-2,50,46,42,45,42,37,100,83,66,30.09,29.81,29.67,10,9,2,15,9,20,0.07,8,Rain,295
2013-11-3,48,39,30,36,32,29,92,73,53,30.43,30.30,30.09,10,10,10,13,6,15,0.00,3,,62
2013-11-4,51,41,31,37,28,22,92,63,34,30.48,30.40,30.32,10,10,10,13,6,17,0.00,0,,125
2013-11-5,57,50,43,48,42,37,83,75,66,30.39,30.32,30.19,10,10,10,13,5,17,T,5,,183
2013-11-6,57,51,44,54,46,38,93,76,59,30.17,29.97,29.86,10,9,3,25,13,33,0.13,8,Rain,221
2013-11-7,47,42,36,38,31,26,86,68,49,30.18,30.12,30.04,10,10,10,22,12,30,T,6,,282
2013-11-8,44,38,31,33,29,25,96,71,45,30.32,30.25,30.16,10,9,4,16,7,21,0.02,4,Rain-Snow,248
2013-11-9,58,47,36,39,34,28,82,65,47,30.20,29.98,29.86,10,10,10,32,14,39,0.00,3,,226
2013-11-10,48,42,35,37,29,24,71,58,45,30.30,30.17,29.96,10,10,10,26,12,33,0.00,5,,274
2013-11-11,47,38,29,39,31,21,92,73,53,30.33,30.17,30.06,10,6,1,22,11,28,0.24,7,Rain-Snow,317
2013-11-12,35,29,22,21,19,17,81,66,51,30.58,30.51,30.35,10,10,10,18,10,25,0.00,1,,311
2013-11-13,37,28,19,20,18,14,91,66,40,30.58,30.47,30.25,10,10,10,21,10,30,0.00,0,,229
2013-11-14,52,41,30,23,20,18,63,45,26,30.24,30.14,30.06,10,10,10,22,13,32,0.00,0,,218
2013-11-15,49,44,39,31,25,21,62,52,42,30.11,30.07,30.04,10,10,9,17,9,23,0.00,1,,206
2013-11-16,59,47,34,52,43,30,92,79,65,30.11,30.00,29.83,10,10,8,17,8,26,0.01,6,,171
2013-11-17,66,58,49,59,54,38,93,77,61,29.83,29.61,29.32,10,9,1,41,17,56,0.46,7,Rain-Thunderstorm,191
2013-11-18,49,42,35,36,31,23,79,68,57,30.17,29.86,29.63,10,10,10,33,20,45,0.00,7,,269
2013-11-19,41,34,27,24,22,21,81,63,45,30.42,30.33,30.18,10,10,10,15,5,18,0.00,4,,331
2013-11-20,45,34,22,28,24,20,88,67,45,30.44,30.35,30.25,10,10,10,15,4,20,0.00,0,,111
2013-11-21,45,41,37,45,40,29,100,85,70,30.32,30.25,30.19,10,7,2,15,4,20,0.39,8,Rain,164
2013-11-22,47,39,30,47,39,24,100,85,70,30.39,30.23,30.15,10,6,2,22,8,29,0.04,7,Rain,288
2013-11-23,33,25,17,24,17,5,88,65,42,30.56,30.39,30.30,10,9,1,25,12,33,T,4,Snow,302
2013-11-24,26,20,13,13,9,4,88,66,44,30.65,30.58,30.49,10,10,10,20,8,25,0.00,2,,272
2013-11-25,31,25,19,21,14,11,73,60,47,30.47,30.28,30.15,10,10,10,22,12,30,T,4,,212
2013-11-26,34,32,29,26,24,22,85,75,64,30.15,30.05,29.93,10,10,10,17,7,23,0.00,8,,240
2013-11-27,30,25,19,23,14,10,81,64,46,30.24,30.04,29.93,10,10,9,22,13,30,T,5,,318
2013-11-28,28,23,17,19,14,10,81,66,50,30.44,30.33,30.25,10,10,9,16,3,20,T,7,,212
2013-11-29,36,29,22,20,17,14,81,62,43,30.66,30.59,30.45,10,10,10,9,3,10,0.00,3,,128
2013-11-30,47,36,25,26,23,18,81,62,42,30.55,30.33,30.13,10,10,10,15,6,18,0.00,1,,177